createdAt,value
2023-04-18T00:00:56.817Z,24.20
2023-04-18T00:10:56.851Z,25.60
2023-04-18T00:20:56.863Z,26.90
2023-04-18T00:30:56.905Z,28.30
2023-04-18T00:40:56.842Z,26.70
2023-04-18T00:50:56.850Z,24.20
2023-04-18T01:00:56.874Z,27.50
2023-04-18T01:10:56.844Z,25.40
2023-04-18T01:20:56.889Z,29.90
2023-04-18T01:30:56.992Z,22.90
2023-04-18T01:40:56.874Z,30.30
2023-04-18T01:50:56.892Z,27.40
2023-04-18T02:00:56.958Z,26.90
2023-04-18T02:10:56.884Z,28.60
2023-04-18T02:20:57.190Z,28.60
2023-04-18T02:30:56.884Z,25.60
2023-04-18T02:40:56.883Z,28.80
2023-04-18T03:00:56.952Z,27.60
2023-04-18T03:20:57.002Z,28.20
2023-04-18T03:40:56.989Z,28.00
2023-04-18T03:50:57.023Z,24.50
2023-04-18T04:00:56.898Z,25.20
2023-04-18T04:10:56.936Z,26.30
2023-04-18T04:20:56.953Z,27.40
2023-04-18T04:30:57.040Z,22.60
2023-04-18T04:40:56.983Z,24.90
2023-04-18T04:50:56.956Z,27.40
2023-04-18T05:00:56.961Z,28.00
2023-04-18T05:10:56.925Z,25.90
2023-04-18T05:20:57.010Z,25.80
2023-04-18T05:30:57.007Z,23.20
2023-04-18T05:40:57.038Z,25.30
2023-04-18T05:50:56.985Z,22.60
2023-04-18T06:00:56.968Z,19.50
2023-04-18T06:10:56.945Z,21.50
2023-04-18T06:20:57.047Z,20.10
2023-04-18T06:30:57.069Z,23.10
2023-04-18T06:40:56.990Z,22.60
2023-04-18T06:50:57.008Z,26.20
2023-04-18T07:00:57.045Z,22.20
2023-04-18T07:10:56.980Z,24.40
2023-04-18T07:20:57.014Z,23.70
2023-04-18T07:30:57.109Z,23.90
2023-04-18T07:40:57.149Z,24.90
2023-04-18T07:50:57.015Z,24.80
2023-04-18T08:00:57.026Z,28.30
2023-04-18T08:10:56.992Z,26.90
2023-04-18T08:20:57.051Z,21.50
2023-04-18T08:30:57.037Z,25.70
2023-04-18T08:40:57.015Z,28.70
2023-04-18T08:50:57.018Z,30.40
2023-04-18T09:00:57.099Z,29.00
2023-04-18T09:10:57.038Z,29.90
2023-04-18T09:20:57.050Z,29.10
2023-04-18T09:30:57.061Z,27.80
2023-04-18T09:40:57.072Z,30.10
2023-04-18T09:50:57.040Z,31.40
2023-04-18T10:00:57.065Z,29.80
2023-04-18T10:10:57.059Z,35.00
2023-04-18T10:20:57.032Z,30.80
2023-04-18T10:30:57.081Z,28.30
2023-04-18T10:40:57.068Z,29.20
2023-04-18T10:50:57.131Z,33.40
2023-04-18T11:00:57.375Z,38.20
2023-04-18T11:10:57.161Z,45.40
2023-04-18T11:20:57.080Z,40.90
2023-04-18T11:30:57.086Z,47.90
2023-04-18T11:40:57.096Z,42.00
2023-04-18T11:50:57.073Z,42.50
2023-04-18T12:00:57.080Z,45.20
2023-04-18T12:10:57.210Z,43.40
2023-04-18T12:20:57.096Z,45.10
2023-04-18T12:30:57.295Z,39.90
2023-04-18T12:40:57.393Z,41.20
2023-04-18T12:50:57.088Z,37.90
2023-04-18T13:00:57.130Z,39.00
2023-04-18T13:10:57.155Z,36.10
2023-04-18T13:20:57.124Z,40.00
2023-04-18T13:30:57.130Z,33.10
2023-04-18T13:41:11.004Z,36.00
2023-04-18T13:50:57.139Z,34.70
2023-04-18T14:00:57.151Z,32.20
2023-04-18T14:10:57.165Z,31.20
2023-04-18T14:20:57.152Z,30.60
2023-04-18T14:30:57.169Z,31.30
2023-04-18T14:40:57.171Z,27.50
2023-04-18T14:50:57.187Z,29.10
2023-04-18T15:00:57.185Z,28.50
2023-04-18T15:10:57.198Z,32.20
2023-04-18T15:20:57.218Z,30.60
2023-04-18T15:30:57.215Z,30.60
2023-04-18T15:40:57.282Z,27.70
2023-04-18T15:50:57.221Z,28.40
2023-04-18T16:00:57.210Z,27.70
2023-04-18T16:10:57.175Z,30.40
2023-04-18T16:20:57.199Z,31.80
2023-04-18T16:30:57.229Z,32.50
2023-04-18T16:40:57.218Z,36.20
2023-04-18T16:50:57.240Z,33.60
2023-04-18T17:00:57.221Z,33.10
2023-04-18T17:10:57.290Z,33.10
2023-04-18T17:20:57.233Z,37.50
2023-04-18T17:30:57.395Z,33.30
2023-04-18T17:40:57.218Z,29.90
2023-04-18T17:50:57.222Z,31.50
2023-04-18T18:00:57.312Z,32.60
2023-04-18T18:10:57.255Z,30.60
2023-04-18T18:20:58.050Z,33.60
2023-04-18T18:30:57.306Z,29.30
2023-04-18T18:40:57.280Z,30.30
2023-04-18T18:50:57.276Z,27.50
2023-04-18T19:00:57.252Z,34.10
2023-04-18T19:10:57.289Z,33.80
2023-04-18T19:20:57.304Z,32.20
2023-04-18T19:30:57.398Z,33.90
2023-04-18T19:40:57.259Z,33.40
2023-04-18T19:50:57.274Z,29.90
2023-04-18T20:00:57.371Z,31.60
2023-04-18T20:10:57.324Z,29.10
2023-04-18T20:20:57.326Z,29.30
2023-04-18T20:40:57.302Z,29.40
2023-04-18T20:50:57.282Z,28.30
2023-04-18T21:00:57.304Z,28.20
2023-04-18T21:10:57.316Z,27.80
2023-04-18T21:20:57.313Z,26.70
2023-04-18T21:30:57.324Z,25.40
2023-04-18T21:40:57.313Z,24.20
2023-04-18T21:50:57.361Z,27.00
2023-04-18T22:00:57.372Z,25.90
2023-04-18T22:10:57.478Z,26.20
2023-04-18T22:20:57.347Z,25.90
2023-04-18T22:30:57.365Z,27.00
2023-04-18T22:40:57.345Z,25.80
2023-04-18T22:50:57.398Z,23.50
2023-04-18T23:00:57.348Z,25.20
2023-04-18T23:10:57.347Z,25.40
2023-04-18T23:20:57.375Z,23.20
2023-04-18T23:30:57.400Z,23.70
2023-04-18T23:40:57.365Z,22.60
2023-04-18T23:50:57.362Z,19.60
